createdAt,value
2023-03-01T00:00:38.789Z,988.47
2023-03-01T00:01:38.809Z,988.49
2023-03-01T00:02:38.788Z,988.53
2023-03-01T00:03:38.854Z,988.59
2023-03-01T00:04:38.740Z,988.52
2023-03-01T00:05:38.733Z,988.53
2023-03-01T00:06:38.699Z,988.56
2023-03-01T00:07:38.710Z,988.53
2023-03-01T00:08:38.685Z,988.47
2023-03-01T00:09:38.678Z,988.57
2023-03-01T00:10:38.674Z,988.55
2023-03-01T00:11:38.669Z,988.54
2023-03-01T00:12:38.630Z,988.54
2023-03-01T00:13:38.622Z,988.52
2023-03-01T00:14:38.622Z,988.49
2023-03-01T00:15:38.609Z,988.51
2023-03-01T00:16:38.595Z,988.56
2023-03-01T00:17:38.570Z,988.58
2023-03-01T00:18:38.549Z,988.54
2023-03-01T00:19:38.584Z,988.53
2023-03-01T00:20:38.540Z,988.53
2023-03-01T00:21:38.543Z,988.51
2023-03-01T00:22:38.523Z,988.57
2023-03-01T00:23:38.507Z,988.53
2023-03-01T00:24:38.499Z,988.54
2023-03-01T00:25:38.481Z,988.49
2023-03-01T00:26:38.467Z,988.51
2023-03-01T00:27:38.453Z,988.55
2023-03-01T00:28:38.432Z,988.49
2023-03-01T00:29:38.422Z,988.49
2023-03-01T00:30:38.427Z,988.50
2023-03-01T00:31:38.422Z,988.51
2023-03-01T00:32:38.387Z,988.50
2023-03-01T00:33:38.379Z,988.50
2023-03-01T00:34:38.364Z,988.52
2023-03-01T00:35:38.461Z,988.43
2023-03-01T00:36:38.334Z,988.49
2023-03-01T00:37:38.354Z,988.48
2023-03-01T00:38:38.326Z,988.37
2023-03-01T00:39:38.310Z,988.40
2023-03-01T00:40:38.312Z,988.46
2023-03-01T00:41:38.309Z,988.46
2023-03-01T00:42:38.263Z,988.47
2023-03-01T00:43:38.262Z,988.46
2023-03-01T00:44:38.246Z,988.45
2023-03-01T00:45:38.255Z,988.46
2023-03-01T00:46:38.286Z,988.49
2023-03-01T00:47:38.214Z,988.47
2023-03-01T00:48:38.200Z,988.51
2023-03-01T00:49:38.179Z,988.49
2023-03-01T00:50:38.164Z,988.47
2023-03-01T00:51:38.182Z,988.47
2023-03-01T00:52:38.159Z,988.44
2023-03-01T00:53:38.143Z,988.39
2023-03-01T00:54:38.126Z,988.42
2023-03-01T00:55:38.137Z,988.42
2023-03-01T00:56:38.106Z,988.43
2023-03-01T00:57:38.088Z,988.42
2023-03-01T00:58:38.075Z,988.34
2023-03-01T00:59:38.077Z,988.32
2023-03-01T01:00:38.037Z,988.29
2023-03-01T01:01:38.107Z,988.29
2023-03-01T01:02:38.059Z,988.26
2023-03-01T01:03:38.004Z,988.25
2023-03-01T01:04:37.995Z,988.20
2023-03-01T01:05:37.991Z,988.25
2023-03-01T01:06:37.994Z,988.18
2023-03-01T01:07:37.956Z,988.22
2023-03-01T01:08:37.991Z,988.21
2023-03-01T01:09:37.953Z,988.19
2023-03-01T01:10:37.930Z,988.21
2023-03-01T01:11:37.929Z,988.14
2023-03-01T01:12:37.894Z,988.18
2023-03-01T01:13:37.886Z,988.15
2023-03-01T01:14:37.863Z,988.17
2023-03-01T01:15:37.886Z,988.07
2023-03-01T01:16:37.873Z,988.15
2023-03-01T01:17:37.833Z,988.15
2023-03-01T01:18:37.822Z,988.09
2023-03-01T01:19:37.814Z,988.12
2023-03-01T01:20:37.796Z,988.04
2023-03-01T01:21:37.811Z,988.08
2023-03-01T01:22:37.788Z,988.07
2023-03-01T01:23:37.759Z,988.03
2023-03-01T01:24:37.754Z,988.07
2023-03-01T01:25:37.750Z,987.99
2023-03-01T01:26:37.737Z,988.01
2023-03-01T01:27:37.721Z,988.01
2023-03-01T01:28:37.693Z,988.02
2023-03-01T01:29:37.696Z,987.94
2023-03-01T01:30:37.666Z,987.97
2023-03-01T01:31:37.682Z,987.90
2023-03-01T01:32:37.642Z,987.92
2023-03-01T01:33:37.634Z,987.88
2023-03-01T01:34:37.623Z,987.90
2023-03-01T01:35:37.627Z,987.88
2023-03-01T01:36:37.602Z,987.83
2023-03-01T01:37:37.584Z,987.86
2023-03-01T01:38:37.571Z,987.90
2023-03-01T01:39:37.562Z,987.89
2023-03-01T01:40:37.551Z,987.88
2023-03-01T01:41:37.539Z,987.83
2023-03-01T01:42:37.530Z,987.89
2023-03-01T01:43:37.521Z,987.78
2023-03-01T01:44:37.497Z,987.85
2023-03-01T01:45:37.495Z,987.74
2023-03-01T01:46:37.516Z,987.83
2023-03-01T01:47:37.462Z,987.79
2023-03-01T01:48:37.444Z,987.73
2023-03-01T01:49:37.455Z,987.74
2023-03-01T01:50:37.420Z,987.70
2023-03-01T01:51:37.412Z,987.68
2023-03-01T01:52:37.422Z,987.72
2023-03-01T01:53:37.390Z,987.68
2023-03-01T01:54:37.373Z,987.68
2023-03-01T01:55:37.360Z,987.67
2023-03-01T01:56:37.340Z,987.63
2023-03-01T01:57:37.347Z,987.67
2023-03-01T01:58:37.322Z,987.64
2023-03-01T01:59:37.329Z,987.63
2023-03-01T02:00:37.301Z,987.62
2023-03-01T02:01:37.292Z,987.62
2023-03-01T02:02:37.405Z,987.57
2023-03-01T02:03:37.341Z,987.61
2023-03-01T02:04:37.250Z,987.62
2023-03-01T02:05:37.231Z,987.57
2023-03-01T02:06:37.215Z,987.51
2023-03-01T02:07:37.253Z,987.53
2023-03-01T02:08:37.198Z,987.49
2023-03-01T02:09:37.182Z,987.49
2023-03-01T02:10:37.171Z,987.52
2023-03-01T02:11:37.163Z,987.50
2023-03-01T02:12:37.154Z,987.44
2023-03-01T02:13:37.141Z,987.44
2023-03-01T02:14:37.120Z,987.47
2023-03-01T02:15:37.138Z,987.47
2023-03-01T02:16:37.200Z,987.47
2023-03-01T02:17:37.099Z,987.43
2023-03-01T02:18:37.072Z,987.40
2023-03-01T02:19:37.082Z,987.44
2023-03-01T02:20:37.065Z,987.37
2023-03-01T02:21:37.048Z,987.34
2023-03-01T02:22:37.107Z,987.30
2023-03-01T02:23:37.017Z,987.30
2023-03-01T02:24:37.009Z,987.29
2023-03-01T02:25:36.997Z,987.29
2023-03-01T02:26:36.980Z,987.31
2023-03-01T02:27:36.995Z,987.32
2023-03-01T02:28:36.977Z,987.29
2023-03-01T02:29:36.931Z,987.29
2023-03-01T02:30:36.924Z,987.34
2023-03-01T02:31:36.958Z,987.28
2023-03-01T02:32:36.910Z,987.28
2023-03-01T02:33:36.914Z,987.28
2023-03-01T02:34:36.882Z,987.28
2023-03-01T02:35:36.918Z,987.26
2023-03-01T02:36:36.852Z,987.26
2023-03-01T02:37:36.866Z,987.27
2023-03-01T02:38:36.842Z,987.24
2023-03-01T02:39:36.810Z,987.19
2023-03-01T02:40:36.806Z,987.16
2023-03-01T02:41:36.797Z,987.12
2023-03-01T02:42:36.781Z,987.11
2023-03-01T02:43:36.761Z,987.16
2023-03-01T02:44:36.751Z,987.20
2023-03-01T02:45:36.739Z,987.18
2023-03-01T02:46:36.808Z,987.25
2023-03-01T02:47:36.711Z,987.19
2023-03-01T02:48:36.703Z,987.18
2023-03-01T02:49:36.684Z,987.18
2023-03-01T02:50:36.663Z,987.07
2023-03-01T02:51:36.663Z,987.16
2023-03-01T02:52:36.656Z,987.07
2023-03-01T02:53:36.656Z,987.06
2023-03-01T02:54:36.621Z,987.02
2023-03-01T02:55:36.603Z,987.06
2023-03-01T02:56:36.603Z,987.05
2023-03-01T02:57:36.594Z,987.08
2023-03-01T02:58:36.583Z,986.98
2023-03-01T02:59:36.567Z,986.98
2023-03-01T03:00:36.582Z,986.98
2023-03-01T03:01:36.534Z,987.01
2023-03-01T03:02:36.581Z,986.97
2023-03-01T03:03:36.558Z,986.95
2023-03-01T03:04:36.519Z,986.97
2023-03-01T03:05:36.485Z,986.97
2023-03-01T03:06:36.483Z,987.02
2023-03-01T03:07:36.451Z,987.06
2023-03-01T03:08:36.512Z,987.05
2023-03-01T03:09:36.452Z,986.96
2023-03-01T03:10:36.460Z,986.98
2023-03-01T03:11:36.424Z,986.98
2023-03-01T03:12:36.411Z,987.00
2023-03-01T03:13:36.381Z,986.96
2023-03-01T03:14:36.409Z,986.95
2023-03-01T03:15:36.358Z,986.92
2023-03-01T03:16:36.381Z,986.89
2023-03-01T03:17:36.371Z,986.95
2023-03-01T03:18:36.333Z,986.87
2023-03-01T03:19:36.333Z,986.88
2023-03-01T03:20:36.304Z,986.85
2023-03-01T03:21:36.292Z,986.91
2023-03-01T03:22:36.271Z,986.85
2023-03-01T03:23:36.282Z,986.89
2023-03-01T03:24:36.277Z,986.87
2023-03-01T03:25:36.245Z,986.88
2023-03-01T03:26:36.245Z,986.90
2023-03-01T03:27:36.230Z,986.88
2023-03-01T03:28:36.235Z,986.87
2023-03-01T03:29:36.219Z,986.89
2023-03-01T03:30:36.188Z,986.88
2023-03-01T03:31:36.233Z,986.81
2023-03-01T03:32:36.154Z,986.85
2023-03-01T03:33:36.146Z,986.84
2023-03-01T03:34:36.222Z,986.82
2023-03-01T03:35:36.128Z,986.92
2023-03-01T03:36:36.116Z,986.93
2023-03-01T03:37:36.102Z,986.81
2023-03-01T03:38:36.101Z,986.91
2023-03-01T03:39:36.086Z,986.97
2023-03-01T03:40:36.080Z,986.93
2023-03-01T03:41:36.031Z,986.88
2023-03-01T03:42:36.029Z,986.93
2023-03-01T03:43:36.039Z,986.89
2023-03-01T03:44:36.043Z,986.94
2023-03-01T03:45:36.098Z,986.93
2023-03-01T03:46:36.340Z,986.91
2023-03-01T03:47:35.990Z,986.92
2023-03-01T03:48:35.964Z,986.87
2023-03-01T03:49:35.966Z,986.90
2023-03-01T04:03:06.718Z,986.84
2023-03-01T04:04:06.688Z,986.75
2023-03-01T04:05:06.688Z,986.82
2023-03-01T04:06:06.678Z,986.84
2023-03-01T04:07:06.658Z,986.80
2023-03-01T04:08:06.656Z,986.85
2023-03-01T04:09:06.642Z,986.88
2023-03-01T04:10:15.327Z,986.82
2023-03-01T04:11:06.613Z,986.91
2023-03-01T04:12:06.602Z,986.96
2023-03-01T04:13:14.098Z,986.97
2023-03-01T04:14:06.575Z,986.97
2023-03-01T04:15:06.555Z,986.95
2023-03-01T04:16:06.569Z,986.97
2023-03-01T04:17:06.547Z,986.97
2023-03-01T04:18:06.516Z,987.04
2023-03-01T04:19:06.510Z,987.03
2023-03-01T04:20:06.518Z,986.99
2023-03-01T04:21:06.501Z,986.99
2023-03-01T04:22:06.467Z,986.99
2023-03-01T04:23:06.456Z,986.97
2023-03-01T04:24:06.466Z,986.96
2023-03-01T04:25:06.472Z,987.00
2023-03-01T04:26:06.424Z,986.99
2023-03-01T04:27:06.453Z,986.98
2023-03-01T04:28:06.384Z,986.99
2023-03-01T04:29:06.418Z,986.94
2023-03-01T04:30:06.405Z,986.92
2023-03-01T04:31:07.835Z,986.91
2023-03-01T04:32:06.494Z,986.93
2023-03-01T04:33:06.335Z,986.98
2023-03-01T04:34:06.328Z,986.95
2023-03-01T04:35:06.345Z,986.98
2023-03-01T04:36:14.912Z,987.02
2023-03-01T04:37:06.292Z,987.04
2023-03-01T04:38:06.272Z,987.01
2023-03-01T04:39:06.284Z,987.00
2023-03-01T04:40:06.267Z,986.96
2023-03-01T04:41:06.231Z,986.98
2023-03-01T04:42:06.386Z,986.99
2023-03-01T04:43:06.233Z,987.02
2023-03-01T04:44:06.225Z,986.93
2023-03-01T04:45:06.227Z,986.94
2023-03-01T04:46:06.212Z,987.05
2023-03-01T04:47:13.705Z,986.93
2023-03-01T04:48:06.158Z,986.97
2023-03-01T04:49:13.673Z,986.98
2023-03-01T04:50:06.145Z,986.93
2023-03-01T04:51:06.143Z,986.95
2023-03-01T04:52:06.106Z,986.97
2023-03-01T04:53:06.098Z,986.93
2023-03-01T04:54:06.075Z,986.97
2023-03-01T04:55:06.104Z,986.94
2023-03-01T04:56:06.060Z,986.91
2023-03-01T04:57:06.075Z,986.89
2023-03-01T04:58:06.036Z,986.90
2023-03-01T04:59:06.047Z,986.98
2023-03-01T05:00:06.051Z,987.01
2023-03-01T05:01:05.996Z,986.98
2023-03-01T05:02:05.992Z,987.02
2023-03-01T05:03:06.031Z,987.04
2023-03-01T05:04:05.988Z,987.04
2023-03-01T05:05:05.962Z,987.04
2023-03-01T05:06:05.938Z,986.96
2023-03-01T05:07:05.912Z,986.94
2023-03-01T05:08:05.936Z,986.98
2023-03-01T05:09:05.907Z,987.02
2023-03-01T05:10:05.977Z,986.97
2023-03-01T05:11:05.901Z,986.94
2023-03-01T05:12:05.864Z,986.92
2023-03-01T05:13:05.853Z,986.88
2023-03-01T05:14:05.845Z,986.87
2023-03-01T05:15:05.868Z,986.84
2023-03-01T05:16:05.828Z,986.94
2023-03-01T05:17:05.823Z,986.93
2023-03-01T05:18:05.799Z,986.89
2023-03-01T05:19:05.786Z,986.90
2023-03-01T05:20:05.776Z,986.86
2023-03-01T05:21:05.764Z,986.83
2023-03-01T05:22:05.744Z,986.84
2023-03-01T05:23:05.730Z,986.87
2023-03-01T05:24:05.788Z,986.84
2023-03-01T05:25:05.709Z,986.84
2023-03-01T05:26:07.552Z,986.83
2023-03-01T05:27:05.685Z,986.85
2023-03-01T05:28:05.675Z,986.85
2023-03-01T05:29:05.661Z,986.90
2023-03-01T05:30:05.649Z,986.86
2023-03-01T05:31:05.692Z,986.88
2023-03-01T05:32:05.676Z,986.91
2023-03-01T05:33:05.591Z,986.92
2023-03-01T05:34:05.582Z,986.84
2023-03-01T05:35:05.583Z,986.88
2023-03-01T05:36:05.582Z,986.88
2023-03-01T05:37:05.573Z,986.86
2023-03-01T05:38:05.544Z,986.86
2023-03-01T05:39:05.553Z,986.87
2023-03-01T05:40:05.509Z,986.84
2023-03-01T05:41:05.535Z,986.89
2023-03-01T05:42:05.524Z,986.89
2023-03-01T05:43:05.489Z,986.87
2023-03-01T05:44:05.482Z,986.92
2023-03-01T05:45:05.502Z,986.86
2023-03-01T05:46:05.488Z,986.91
2023-03-01T05:47:05.436Z,986.79
2023-03-01T05:48:05.441Z,986.84
2023-03-01T05:49:05.438Z,986.82
2023-03-01T05:50:05.386Z,986.79
2023-03-01T05:51:05.399Z,986.74
2023-03-01T05:52:05.399Z,986.82
2023-03-01T05:53:05.378Z,986.81
2023-03-01T05:54:05.371Z,986.78
2023-03-01T05:55:05.361Z,986.81
2023-03-01T05:56:05.346Z,986.76
2023-03-01T05:57:05.304Z,986.76
2023-03-01T05:58:05.310Z,986.82
2023-03-01T05:59:05.281Z,986.83
2023-03-01T06:00:05.284Z,986.83
2023-03-01T06:01:05.281Z,986.69
2023-03-01T06:02:05.255Z,986.77
2023-03-01T06:03:05.235Z,986.80
2023-03-01T06:04:05.243Z,986.75
2023-03-01T06:05:05.364Z,986.81
2023-03-01T06:06:05.225Z,986.86
2023-03-01T06:07:05.199Z,986.77
2023-03-01T06:08:05.178Z,986.76
2023-03-01T06:09:05.153Z,986.80
2023-03-01T06:10:05.199Z,986.69
2023-03-01T06:11:05.174Z,986.70
2023-03-01T06:12:05.137Z,986.62
2023-03-01T06:13:05.114Z,986.65
2023-03-01T06:14:05.127Z,986.63
2023-03-01T06:15:05.106Z,986.66
2023-03-01T06:16:05.145Z,986.66
2023-03-01T06:17:05.058Z,986.67
2023-03-01T06:18:05.053Z,986.66
2023-03-01T06:19:05.043Z,986.71
2023-03-01T06:20:05.045Z,986.67
2023-03-01T06:21:05.026Z,986.71
2023-03-01T06:22:05.016Z,986.64
2023-03-01T06:23:04.985Z,986.69
2023-03-01T06:24:04.966Z,986.68
2023-03-01T06:25:04.972Z,986.69
2023-03-01T06:26:04.964Z,986.70
2023-03-01T06:27:04.942Z,986.72
2023-03-01T06:28:04.952Z,986.70
2023-03-01T06:29:04.905Z,986.63
2023-03-01T06:30:04.909Z,986.67
2023-03-01T06:31:04.977Z,986.70
2023-03-01T06:32:04.906Z,986.69
2023-03-01T06:33:04.876Z,986.62
2023-03-01T06:34:04.851Z,986.67
2023-03-01T06:35:04.853Z,986.63
2023-03-01T06:36:04.898Z,986.64
2023-03-01T06:37:04.835Z,986.72
2023-03-01T06:38:04.850Z,986.60
2023-03-01T06:39:04.796Z,986.65
2023-03-01T06:40:04.851Z,986.67
2023-03-01T06:41:04.829Z,986.66
2023-03-01T06:42:04.788Z,986.60
2023-03-01T06:43:04.771Z,986.66
2023-03-01T06:44:04.746Z,986.68
2023-03-01T06:45:04.757Z,986.65
2023-03-01T06:46:04.758Z,986.64
2023-03-01T06:47:04.714Z,986.68
2023-03-01T06:48:04.695Z,986.61
2023-03-01T06:49:04.726Z,986.63
2023-03-01T06:50:04.747Z,986.63
2023-03-01T06:51:04.666Z,986.64
2023-03-01T06:52:04.635Z,986.57
2023-03-01T06:53:04.642Z,986.61
2023-03-01T06:54:04.616Z,986.65
2023-03-01T06:55:04.614Z,986.64
2023-03-01T06:56:04.600Z,986.62
2023-03-01T06:57:04.571Z,986.58
2023-03-01T06:58:04.566Z,986.62
2023-03-01T06:59:04.541Z,986.66
2023-03-01T07:00:04.549Z,986.68
2023-03-01T07:01:06.367Z,986.63
2023-03-01T07:02:04.530Z,986.65
2023-03-01T07:03:04.585Z,986.62
2023-03-01T07:04:04.491Z,986.59
2023-03-01T07:05:04.463Z,986.61
2023-03-01T07:06:04.471Z,986.56
2023-03-01T07:07:04.458Z,986.60
2023-03-01T07:08:04.444Z,986.50
2023-03-01T07:09:04.408Z,986.56
2023-03-01T07:10:04.440Z,986.57
2023-03-01T07:11:04.419Z,986.52
2023-03-01T07:12:04.407Z,986.60
2023-03-01T07:13:04.378Z,986.53
2023-03-01T07:14:04.369Z,986.50
2023-03-01T07:15:04.341Z,986.54
2023-03-01T07:16:04.398Z,986.51
2023-03-01T07:17:04.354Z,986.52
2023-03-01T07:18:04.319Z,986.49
2023-03-01T07:19:04.326Z,986.42
2023-03-01T07:20:04.280Z,986.41
2023-03-01T07:21:04.270Z,986.36
2023-03-01T07:22:04.263Z,986.37
2023-03-01T07:23:04.245Z,986.45
2023-03-01T07:24:04.281Z,986.39
2023-03-01T07:25:04.234Z,986.42
2023-03-01T07:26:04.237Z,986.46
2023-03-01T07:27:04.222Z,986.39
2023-03-01T07:28:04.233Z,986.32
2023-03-01T07:29:04.174Z,986.39
2023-03-01T07:30:04.167Z,986.37
2023-03-01T07:31:04.147Z,986.36
2023-03-01T07:32:04.238Z,986.31
2023-03-01T07:33:04.255Z,986.37
2023-03-01T07:34:04.121Z,986.30
2023-03-01T07:35:04.097Z,986.29
2023-03-01T07:36:04.096Z,986.29
2023-03-01T07:37:04.111Z,986.38
2023-03-01T07:38:04.089Z,986.33
2023-03-01T07:39:04.044Z,986.29
2023-03-01T07:40:04.041Z,986.29
2023-03-01T07:41:04.050Z,986.30
2023-03-01T07:42:04.058Z,986.28
2023-03-01T07:43:04.009Z,986.24
2023-03-01T07:44:03.988Z,986.29
2023-03-01T07:45:03.977Z,986.30
2023-03-01T07:46:04.028Z,986.22
2023-03-01T07:47:03.991Z,986.17
2023-03-01T07:48:03.938Z,986.13
2023-03-01T07:49:04.769Z,986.16
2023-03-01T07:50:03.929Z,986.13
2023-03-01T07:51:03.900Z,986.18
2023-03-01T07:52:03.917Z,986.13
2023-03-01T07:53:03.870Z,986.08
2023-03-01T07:54:03.864Z,986.13
2023-03-01T07:55:03.865Z,986.11
2023-03-01T07:56:03.850Z,986.16
2023-03-01T07:57:03.845Z,986.11
2023-03-01T07:58:03.823Z,986.12
2023-03-01T07:59:03.807Z,986.08
2023-03-01T08:00:03.787Z,986.14
2023-03-01T08:01:11.292Z,986.12
2023-03-01T08:02:03.823Z,986.17
2023-03-01T08:03:03.795Z,986.17
2023-03-01T08:04:03.745Z,986.25
2023-03-01T08:05:03.717Z,986.25
2023-03-01T08:06:03.721Z,986.31
2023-03-01T08:07:03.711Z,986.24
2023-03-01T08:08:03.707Z,986.32
2023-03-01T08:09:03.700Z,986.18
2023-03-01T08:10:03.660Z,986.20
2023-03-01T08:11:03.654Z,986.20
2023-03-01T08:12:03.671Z,986.25
2023-03-01T08:13:03.630Z,986.15
2023-03-01T08:14:03.617Z,986.17
2023-03-01T08:15:11.130Z,986.24
2023-03-01T08:16:03.610Z,986.16
2023-03-01T08:17:03.615Z,986.09
2023-03-01T08:18:03.584Z,986.12
2023-03-01T08:19:03.547Z,986.09
2023-03-01T08:20:03.542Z,986.12
2023-03-01T08:21:03.517Z,986.10
2023-03-01T08:22:03.559Z,986.11
2023-03-01T08:23:03.515Z,986.10
2023-03-01T08:24:03.485Z,986.12
2023-03-01T08:25:03.524Z,986.07
2023-03-01T08:26:03.485Z,986.08
2023-03-01T08:27:03.444Z,985.98
2023-03-01T08:28:03.464Z,985.97
2023-03-01T08:29:03.430Z,985.99
2023-03-01T08:30:03.445Z,985.88
2023-03-01T08:31:03.404Z,985.94
2023-03-01T08:32:03.566Z,985.88
2023-03-01T08:33:03.451Z,985.87
2023-03-01T08:34:03.370Z,985.87
2023-03-01T08:35:03.383Z,985.87
2023-03-01T08:36:03.398Z,985.85
2023-03-01T08:37:03.343Z,985.92
2023-03-01T08:38:03.325Z,985.91
2023-03-01T08:39:03.302Z,985.80
2023-03-01T08:40:03.304Z,985.86
2023-03-01T08:41:03.275Z,985.87
2023-03-01T08:42:03.282Z,985.82
2023-03-01T08:43:03.275Z,985.83
2023-03-01T08:44:03.234Z,985.78
2023-03-01T08:45:03.251Z,985.86
2023-03-01T08:46:03.312Z,985.77
2023-03-01T08:47:03.240Z,985.75
2023-03-01T08:48:03.221Z,985.83
2023-03-01T08:49:03.166Z,985.78
2023-03-01T08:50:03.199Z,985.69
2023-03-01T08:51:03.143Z,985.68
2023-03-01T08:52:03.150Z,985.70
2023-03-01T08:53:03.158Z,985.71
2023-03-01T08:54:03.137Z,985.70
2023-03-01T08:55:03.099Z,985.72
2023-03-01T08:56:03.091Z,985.71
2023-03-01T08:57:03.089Z,985.72
2023-03-01T08:58:03.094Z,985.71
2023-03-01T08:59:03.027Z,985.69
2023-03-01T09:00:03.038Z,985.67
2023-03-01T09:01:03.016Z,985.68
2023-03-01T09:02:03.023Z,985.68
2023-03-01T09:03:03.015Z,985.69
2023-03-01T09:04:03.018Z,985.65
2023-03-01T09:05:02.975Z,985.62
2023-03-01T09:06:02.969Z,985.67
2023-03-01T09:07:02.946Z,985.64
2023-03-01T09:08:02.982Z,985.64
2023-03-01T09:09:02.916Z,985.67
2023-03-01T09:10:02.888Z,985.65
2023-03-01T09:11:02.889Z,985.61
2023-03-01T09:12:02.890Z,985.65
2023-03-01T09:13:02.869Z,985.52
2023-03-01T09:14:03.006Z,985.57
2023-03-01T09:15:03.140Z,985.60
2023-03-01T09:16:02.832Z,985.59
2023-03-01T09:17:02.867Z,985.59
2023-03-01T09:18:02.840Z,985.57
2023-03-01T09:19:02.794Z,985.55
2023-03-01T09:20:02.789Z,985.58
2023-03-01T09:21:02.767Z,985.54
2023-03-01T09:22:02.799Z,985.54
2023-03-01T09:23:02.771Z,985.47
2023-03-01T09:24:02.739Z,985.50
2023-03-01T09:25:02.719Z,985.49
2023-03-01T09:26:02.711Z,985.52
2023-03-01T09:27:02.711Z,985.49
2023-03-01T09:28:02.697Z,985.52
2023-03-01T09:29:02.693Z,985.48
2023-03-01T09:30:02.670Z,985.44
2023-03-01T09:31:02.720Z,985.49
2023-03-01T09:32:02.697Z,985.34
2023-03-01T09:33:02.666Z,985.37
2023-03-01T09:34:02.622Z,985.38
2023-03-01T09:35:02.573Z,985.33
2023-03-01T09:36:02.626Z,985.37
2023-03-01T09:37:02.594Z,985.41
2023-03-01T09:38:02.574Z,985.36
2023-03-01T09:39:02.755Z,985.36
2023-03-01T09:40:02.547Z,985.40
2023-03-01T09:41:02.540Z,985.27
2023-03-01T09:42:02.511Z,985.36
2023-03-01T09:43:02.524Z,985.33
2023-03-01T09:44:02.508Z,985.28
2023-03-01T09:45:02.477Z,985.19
2023-03-01T09:46:02.511Z,985.24
2023-03-01T09:47:02.456Z,985.28
2023-03-01T10:03:40.974Z,985.09
2023-03-01T10:04:41.030Z,985.08
2023-03-01T10:05:40.900Z,985.06
2023-03-01T10:06:40.820Z,985.11
2023-03-01T10:07:40.810Z,985.08
2023-03-01T10:08:40.800Z,985.09
2023-03-01T10:09:40.806Z,985.10
2023-03-01T10:10:40.762Z,985.18
2023-03-01T10:11:41.114Z,985.13
2023-03-01T10:12:40.752Z,985.11
2023-03-01T10:13:40.752Z,985.05
2023-03-01T10:14:40.732Z,985.11
2023-03-01T10:15:40.740Z,985.07
2023-03-01T10:16:40.692Z,985.02
2023-03-01T10:17:40.684Z,985.01
2023-03-01T10:18:40.674Z,985.06
2023-03-01T10:19:40.674Z,984.92
2023-03-01T10:20:40.684Z,984.96
2023-03-01T10:21:40.648Z,985.00
2023-03-01T10:22:40.643Z,984.98
2023-03-01T10:23:40.617Z,984.94
2023-03-01T10:24:40.609Z,984.94
2023-03-01T10:25:42.559Z,984.96
2023-03-01T10:26:40.584Z,984.94
2023-03-01T10:27:40.554Z,984.93
2023-03-01T10:28:40.553Z,984.89
2023-03-01T10:29:40.561Z,984.83
2023-03-01T10:30:40.563Z,984.92
2023-03-01T10:31:40.542Z,984.97
2023-03-01T10:32:40.485Z,984.93
2023-03-01T10:33:40.474Z,984.99
2023-03-01T10:34:40.488Z,984.98
2023-03-01T10:35:40.463Z,984.98
2023-03-01T10:36:40.443Z,984.93
2023-03-01T10:37:40.427Z,984.95
2023-03-01T10:38:40.420Z,984.97
2023-03-01T10:39:40.404Z,984.92
2023-03-01T10:40:40.395Z,984.88
2023-03-01T10:41:40.376Z,984.86
2023-03-01T10:42:40.361Z,984.84
2023-03-01T10:43:40.335Z,984.79
2023-03-01T10:44:40.377Z,984.80
2023-03-01T10:45:40.343Z,984.70
2023-03-01T10:46:40.465Z,984.73
2023-03-01T10:47:40.346Z,984.71
2023-03-01T10:48:40.295Z,984.67
2023-03-01T10:49:40.590Z,984.67
2023-03-01T10:50:42.173Z,984.64
2023-03-01T10:51:40.679Z,984.68
2023-03-01T10:52:40.237Z,984.52
2023-03-01T10:53:40.217Z,984.54
2023-03-01T10:54:40.236Z,984.51
2023-03-01T10:55:40.186Z,984.48
2023-03-01T10:56:40.187Z,984.45
2023-03-01T10:57:42.551Z,984.45
2023-03-01T10:58:40.172Z,984.45
2023-03-01T10:59:40.176Z,984.41
2023-03-01T11:00:40.149Z,984.33
2023-03-01T11:01:40.149Z,984.30
2023-03-01T11:02:40.142Z,984.18
2023-03-01T11:03:40.117Z,984.21
2023-03-01T11:04:40.149Z,984.25
2023-03-01T11:05:40.057Z,984.27
2023-03-01T11:06:40.062Z,984.21
2023-03-01T11:07:40.071Z,984.22
2023-03-01T11:08:40.064Z,984.11
2023-03-01T11:09:40.038Z,984.15
2023-03-01T11:10:40.010Z,984.12
2023-03-01T11:11:39.991Z,984.12
2023-03-01T11:12:39.971Z,984.04
2023-03-01T11:13:39.992Z,984.10
2023-03-01T11:14:39.967Z,984.11
2023-03-01T11:15:39.951Z,984.03
2023-03-01T11:16:39.943Z,984.03
2023-03-01T11:17:53.649Z,983.97
2023-03-01T11:18:48.240Z,983.98
2023-03-01T11:19:41.635Z,983.86
2023-03-01T11:20:39.862Z,983.90
2023-03-01T11:21:39.856Z,983.89
2023-03-01T11:22:39.857Z,983.90
2023-03-01T11:23:39.834Z,983.78
2023-03-01T11:24:41.169Z,983.76
2023-03-01T11:25:39.817Z,983.78
2023-03-01T11:26:39.808Z,983.74
2023-03-01T11:27:40.228Z,983.71
2023-03-01T11:28:39.772Z,983.68
2023-03-01T11:29:48.509Z,983.64
2023-03-01T11:30:40.747Z,983.63
2023-03-01T11:31:46.560Z,983.57
2023-03-01T11:32:40.793Z,983.59
2023-03-01T11:33:39.714Z,983.54
2023-03-01T11:34:39.683Z,983.56
2023-03-01T11:35:39.698Z,983.44
2023-03-01T11:36:39.671Z,983.45
2023-03-01T11:37:39.654Z,983.44
2023-03-01T11:38:39.666Z,983.39
2023-03-01T11:39:39.625Z,983.45
2023-03-01T11:40:39.623Z,983.42
2023-03-01T11:41:39.614Z,983.34
2023-03-01T11:42:39.628Z,983.35
2023-03-01T11:43:39.566Z,983.30
2023-03-01T11:44:39.556Z,983.32
2023-03-01T11:45:39.575Z,983.27
2023-03-01T11:46:39.651Z,983.18
2023-03-01T11:47:39.723Z,983.18
2023-03-01T11:48:48.964Z,983.14
2023-03-01T11:49:40.521Z,983.18
2023-03-01T11:50:39.529Z,983.12
2023-03-01T11:51:39.500Z,983.18
2023-03-01T11:52:39.487Z,983.11
2023-03-01T11:53:39.626Z,983.15
2023-03-01T11:54:39.553Z,983.06
2023-03-01T11:55:39.559Z,983.00
2023-03-01T11:56:39.486Z,982.93
2023-03-01T11:57:43.853Z,982.97
2023-03-01T11:58:39.420Z,982.86
2023-03-01T11:59:39.370Z,982.82
2023-03-01T12:00:39.370Z,982.89
2023-03-01T12:01:42.287Z,982.85
2023-03-01T12:02:39.655Z,982.79
2023-03-01T12:03:39.341Z,982.88
2023-03-01T12:04:39.514Z,982.80
2023-03-01T12:05:39.445Z,982.71
2023-03-01T12:06:39.316Z,982.70
2023-03-01T12:07:39.324Z,982.66
2023-03-01T12:08:39.260Z,982.56
2023-03-01T12:09:39.261Z,982.59
2023-03-01T12:10:39.296Z,982.58
2023-03-01T12:11:39.296Z,982.54
2023-03-01T12:12:39.250Z,982.52
2023-03-01T12:13:39.682Z,982.49
2023-03-01T12:14:39.172Z,982.43
2023-03-01T12:15:39.230Z,982.46
2023-03-01T12:16:39.913Z,982.42
2023-03-01T12:17:39.239Z,982.46
2023-03-01T12:18:39.155Z,982.41
2023-03-01T12:19:39.278Z,982.45
2023-03-01T12:20:39.113Z,982.41
2023-03-01T12:21:39.131Z,982.42
2023-03-01T12:22:39.120Z,982.40
2023-03-01T12:23:39.121Z,982.38
2023-03-01T12:24:39.093Z,982.29
2023-03-01T12:25:39.178Z,982.30
2023-03-01T12:26:39.182Z,982.31
2023-03-01T12:27:39.162Z,982.24
2023-03-01T12:28:39.014Z,982.28
2023-03-01T12:29:39.029Z,982.24
2023-03-01T12:30:39.010Z,982.18
2023-03-01T12:31:39.046Z,982.14
2023-03-01T12:32:39.060Z,982.10
2023-03-01T12:33:39.209Z,982.12
2023-03-01T12:34:38.954Z,982.08
2023-03-01T12:35:38.998Z,982.08
2023-03-01T12:36:38.919Z,982.02
2023-03-01T12:37:38.912Z,982.01
2023-03-01T12:38:38.901Z,981.99
2023-03-01T12:39:38.911Z,981.92
2023-03-01T12:40:39.182Z,981.90
2023-03-01T12:41:38.914Z,981.95
2023-03-01T12:42:38.961Z,981.97
2023-03-01T12:43:38.862Z,981.95
2023-03-01T12:44:38.832Z,981.93
2023-03-01T12:45:38.852Z,981.99
2023-03-01T12:46:38.794Z,981.92
2023-03-01T12:47:38.896Z,981.94
2023-03-01T12:48:38.809Z,981.90
2023-03-01T12:49:38.773Z,981.86
2023-03-01T12:50:38.798Z,981.89
2023-03-01T12:51:38.770Z,981.88
2023-03-01T12:52:38.706Z,981.84
2023-03-01T12:53:38.725Z,981.79
2023-03-01T12:54:38.712Z,981.75
2023-03-01T12:55:38.870Z,981.74
2023-03-01T12:56:38.689Z,981.78